Time;durP1;ratioP1;P1;durP2;ratioP2;P2;SDS_P1;SDS_P2;PMS_P1;PMS_P2;Temp;Humidity;BMP_temperature;BMP_pressure;BME280_temperature;BME280_humidity;BME280_pressure;Samples;Min_cycle;Max_cycle;Signal;HPM_P1;HPM_P2
2022/08/27 00:00:49;;;;;;;3.80;1.70;;;;;;;25.03;49.55;98966.34;4476996;32;32487;-78
2022/08/27 00:03:18;;;;;;;8.68;2.12;;;;;;;24.98;49.92;98964.06;4477180;32;33925;-78
2022/08/27 00:05:47;;;;;;;5.75;1.75;;;;;;;24.83;50.55;98966.22;4477257;32;34718;-78
2022/08/27 00:08:16;;;;;;;5.72;1.90;;;;;;;24.88;49.89;98965.84;4482112;32;33965;-80
2022/08/27 00:10:45;;;;;;;3.12;1.50;;;;;;;24.72;50.26;98965.44;4476541;32;33353;-80
2022/08/27 00:13:15;;;;;;;5.50;1.77;;;;;;;24.54;50.69;98965.16;4476172;32;34523;-79
2022/08/27 00:15:44;;;;;;;3.60;1.80;;;;;;;24.68;50.37;98970.16;4477251;32;33420;-80
2022/08/27 00:18:13;;;;;;;4.50;1.60;;;;;;;24.73;50.66;98970.63;4482488;32;34386;-78
2022/08/27 00:20:43;;;;;;;2.78;1.15;;;;;;;24.68;50.93;98963.03;4477511;32;33790;-79
2022/08/27 00:23:12;;;;;;;3.15;1.85;;;;;;;24.58;51.14;98967.44;4477786;32;34543;-79
2022/08/27 00:25:42;;;;;;;5.37;2.97;;;;;;;24.68;50.83;98968.34;4477082;32;33542;-80
2022/08/27 00:28:11;;;;;;;4.22;1.77;;;;;;;24.64;51.11;98974.03;4476505;32;34078;-78
2022/08/27 00:30:42;;;;;;;5.65;1.90;;;;;;;24.47;51.28;98967.47;4482813;32;33242;-80
2022/08/27 00:33:11;;;;;;;3.50;1.20;;;;;;;24.51;51.18;98973.38;4477235;32;33657;-79
2022/08/27 00:35:40;;;;;;;6.62;2.03;;;;;;;24.63;51.17;98975.84;4476916;32;34513;-78
2022/08/27 00:38:09;;;;;;;6.72;2.00;;;;;;;24.64;50.85;98974.03;4476673;32;33351;-80
2022/08/27 00:40:38;;;;;;;7.72;1.98;;;;;;;24.58;51.10;98970.09;4482367;32;33487;-78
2022/08/27 00:43:07;;;;;;;3.30;1.62;;;;;;;24.58;50.82;98967.44;4476933;32;34820;-78
2022/08/27 00:45:38;;;;;;;3.62;1.73;;;;;;;24.59;50.66;98971.75;4480117;32;33804;-80
2022/08/27 00:48:11;;;;;;;5.47;2.12;;;;;;;24.43;50.92;98971.31;4477092;32;33548;-79
2022/08/27 00:50:42;;;;;;;5.00;1.62;;;;;;;24.27;51.34;98969.91;4476915;32;33022;-78
2022/08/27 00:53:13;;;;;;;2.72;1.90;;;;;;;24.45;51.08;98970.22;4482471;32;34722;-77
2022/08/27 00:55:45;;;;;;;1.92;1.37;;;;;;;24.39;50.96;98965.41;4477131;32;35087;-80
2022/08/27 00:58:19;;;;;;;2.83;1.30;;;;;;;24.40;50.80;98971.56;4477326;32;33388;-78
2022/08/27 01:00:48;;;;;;;2.03;1.30;;;;;;;24.38;50.96;98973.47;4476915;32;34561;-80
2022/08/27 01:03:19;;;;;;;3.62;1.80;;;;;;;24.41;50.75;98971.44;4482565;32;33004;-79
2022/08/27 01:05:49;;;;;;;2.37;1.30;;;;;;;24.17;50.93;98979.56;4476790;32;34702;-78
2022/08/27 01:08:21;;;;;;;1.90;1.23;;;;;;;24.20;51.24;98983.78;4476401;32;34399;-78
2022/08/27 01:10:50;;;;;;;3.33;1.65;;;;;;;24.27;51.09;98977.84;4476137;32;33672;-80
2022/08/27 01:13:23;;;;;;;2.40;1.42;;;;;;;24.25;51.26;98977.13;4478890;32;33506;-80
2022/08/27 01:16:12;;;;;;;5.10;1.42;;;;;;;24.24;51.21;98983.41;4482470;32;33519;-78
2022/08/27 01:18:43;;;;;;;2.20;1.15;;;;;;;24.12;51.64;98980.94;4476589;32;34196;-79
2022/08/27 01:21:20;;;;;;;4.40;2.25;;;;;;;24.18;51.54;98993.66;4477170;32;33630;-80
2022/08/27 01:23:54;;;;;;;2.33;1.35;;;;;;;23.97;52.40;98986.50;4476675;32;34681;-80
2022/08/27 01:26:25;;;;;;;2.95;1.50;;;;;;;24.08;51.50;98980.31;4476920;32;33696;-79
2022/08/27 01:28:58;;;;;;;4.03;1.77;;;;;;;23.72;52.98;98987.53;4482302;32;33673;-80
2022/08/27 01:31:28;;;;;;;2.50;1.45;;;;;;;23.81;52.78;98986.84;4476507;32;33014;-80
2022/08/27 01:34:00;;;;;;;7.93;2.10;;;;;;;23.84;52.70;98983.94;4476759;32;33241;-80
2022/08/27 01:36:30;;;;;;;2.62;1.50;;;;;;;23.91;52.60;98988.78;4476359;32;34887;-80
2022/08/27 01:38:59;;;;;;;5.75;2.35;;;;;;;23.81;53.22;98992.16;4476501;32;34062;-78
2022/08/27 01:41:29;;;;;;;4.57;1.55;;;;;;;23.72;52.98;98984.06;4481858;32;34055;-81
2022/08/27 01:43:58;;;;;;;4.45;2.22;;;;;;;23.84;52.80;98991.91;4477363;32;33542;-78
2022/08/27 01:46:28;;;;;;;3.20;1.52;;;;;;;23.96;52.51;98995.37;4476639;32;33818;-80
2022/08/27 01:48:57;;;;;;;2.80;1.52;;;;;;;23.90;52.95;98990.59;4476746;32;33358;-80
2022/08/27 01:51:26;;;;;;;4.32;1.77;;;;;;;23.92;53.00;98990.44;4482075;32;33179;-80
2022/08/27 01:53:55;;;;;;;2.70;1.55;;;;;;;23.77;53.25;98996.00;4476467;32;34708;-80
2022/08/27 01:56:24;;;;;;;5.20;2.33;;;;;;;23.71;53.68;98988.50;4476318;32;33720;-78
2022/08/27 01:58:54;;;;;;;4.32;2.45;;;;;;;23.75;53.61;99002.37;4476447;32;33474;-79
2022/08/27 02:01:23;;;;;;;3.62;1.80;;;;;;;23.61;53.97;98993.69;4476199;32;32377;-79
2022/08/27 02:03:52;;;;;;;2.72;1.48;;;;;;;23.64;53.99;99003.19;4481742;32;34499;-80
2022/08/27 02:06:21;;;;;;;4.00;1.60;;;;;;;23.53;53.96;98996.06;4475980;32;33736;-78
2022/08/27 02:08:49;;;;;;;3.65;1.98;;;;;;;23.39;54.47;99002.47;4476376;32;33641;-80
2022/08/27 02:11:18;;;;;;;3.95;2.05;;;;;;;23.42;54.85;98999.56;4476024;32;33131;-79
2022/08/27 02:13:47;;;;;;;3.83;1.90;;;;;;;23.35;55.13;98998.34;4481691;32;34281;-80
2022/08/27 02:16:17;;;;;;;2.65;1.30;;;;;;;23.27;55.41;98998.12;4476207;32;34110;-79
2022/08/27 02:18:48;;;;;;;7.55;2.30;;;;;;;23.46;54.55;98996.69;4475957;32;32930;-80
2022/08/27 02:21:17;;;;;;;4.87;1.62;;;;;;;23.29;54.81;98996.16;4475951;32;33204;-78
2022/08/27 02:23:46;;;;;;;3.75;1.80;;;;;;;23.24;54.91;98990.38;4483050;32;34323;-78
2022/08/27 02:26:15;;;;;;;3.53;1.55;;;;;;;23.37;54.94;98993.78;4482613;32;34493;-79
2022/08/27 02:28:44;;;;;;;6.30;2.15;;;;;;;23.41;54.61;98987.31;4478290;32;33687;-79
2022/08/27 02:31:13;;;;;;;3.22;1.40;;;;;;;23.34;54.63;98988.75;4478260;32;33028;-80
2022/08/27 02:33:43;;;;;;;2.85;1.73;;;;;;;23.31;54.38;98991.59;4477839;32;33760;-79
2022/08/27 02:36:12;;;;;;;5.32;2.08;;;;;;;23.39;53.77;98986.59;4483342;32;33960;-79
2022/08/27 02:38:41;;;;;;;2.87;1.50;;;;;;;23.36;54.14;98984.16;4477787;32;34320;-78
2022/08/27 02:41:10;;;;;;;3.55;1.52;;;;;;;23.27;54.12;98978.72;4476819;32;33301;-80
2022/08/27 02:43:39;;;;;;;2.53;1.67;;;;;;;23.12;54.39;98989.56;4471749;32;33529;-79
2022/08/27 02:46:10;;;;;;;5.18;1.80;;;;;;;23.05;54.88;98979.53;4477273;32;33957;-79
2022/08/27 02:48:40;;;;;;;2.47;1.40;;;;;;;23.11;54.62;98976.44;4477908;32;33876;-79
2022/08/27 02:51:10;;;;;;;10.90;2.25;;;;;;;23.16;54.56;98982.22;4470114;32;33093;-79
2022/08/27 02:53:39;;;;;;;3.10;1.27;;;;;;;23.05;54.46;98984.81;4478214;32;33189;-78
2022/08/27 02:56:08;;;;;;;3.85;2.00;;;;;;;23.06;54.71;98986.53;4477870;32;33636;-79
2022/08/27 02:58:37;;;;;;;2.75;1.67;;;;;;;22.95;55.10;98988.16;4477404;32;34216;-79
2022/08/27 03:01:08;;;;;;;5.35;1.67;;;;;;;23.07;54.45;98990.84;4477482;32;34325;-78
2022/08/27 03:03:41;;;;;;;7.35;2.00;;;;;;;23.02;54.53;98991.19;4477678;32;33457;-79
2022/08/27 03:06:14;;;;;;;2.80;1.60;;;;;;;23.03;54.75;98981.44;4477227;32;33648;-79
2022/08/27 03:08:43;;;;;;;4.37;1.87;;;;;;;22.88;55.15;98975.47;4483576;32;33658;-79
2022/08/27 03:11:22;;;;;;;3.55;1.67;;;;;;;22.93;55.08;98979.50;4483364;32;33127;-79
2022/08/27 03:13:51;;;;;;;2.58;1.67;;;;;;;22.76;55.70;98987.81;4477789;32;33007;-80
2022/08/27 03:16:20;;;;;;;4.15;2.10;;;;;;;22.80;55.71;98994.56;4471456;32;33979;-78
2022/08/27 03:18:48;;;;;;;4.85;2.05;;;;;;;22.83;55.45;98982.94;4477706;32;34459;-77
2022/08/27 03:21:20;;;;;;;4.75;2.53;;;;;;;22.87;55.04;98979.94;4483155;32;33207;-79
2022/08/27 03:23:50;;;;;;;3.72;1.70;;;;;;;22.91;55.13;98989.34;4477674;32;33546;-80
2022/08/27 03:26:19;;;;;;;5.28;1.87;;;;;;;22.98;55.06;98990.59;4477621;32;34515;-77
2022/08/27 03:28:48;;;;;;;2.95;1.62;;;;;;;22.93;55.06;98986.56;4477772;32;34504;-79
2022/08/27 03:31:25;;;;;;;6.93;2.05;;;;;;;22.77;55.86;98990.38;4482932;32;33114;-79
2022/08/27 03:33:56;;;;;;;6.50;1.85;;;;;;;22.75;55.85;98992.28;4482682;32;34260;-78
2022/08/27 03:36:28;;;;;;;4.37;2.10;;;;;;;22.65;56.14;98993.94;4476172;32;34767;-78
2022/08/27 03:38:57;;;;;;;8.57;3.25;;;;;;;22.83;55.61;98990.88;4477284;32;34444;-78
2022/08/27 03:41:26;;;;;;;4.68;2.80;;;;;;;22.76;55.54;98993.09;4477175;32;33053;-78
2022/08/27 03:44:15;;;;;;;3.85;1.80;;;;;;;22.64;55.96;98988.75;4477696;32;33799;-78
2022/08/27 03:46:50;;;;;;;4.90;1.62;;;;;;;22.54;56.29;98984.16;4483242;32;34309;-78
2022/08/27 03:49:19;;;;;;;3.72;1.92;;;;;;;22.60;56.31;98989.94;4477192;32;34046;-78
2022/08/27 03:51:51;;;;;;;6.03;1.83;;;;;;;22.52;56.46;98991.34;4477158;32;34242;-78
2022/08/27 03:54:20;;;;;;;;;;;;;;;22.44;56.86;98984.94;4480256;32;33758;-79
2022/08/27 03:56:48;;;;;;;4.28;1.87;;;;;;;22.51;56.71;98987.00;4482742;32;34275;-78
2022/08/27 03:59:17;;;;;;;4.78;2.58;;;;;;;22.40;56.91;98989.63;4477647;32;33895;-78
2022/08/27 04:01:46;;;;;;;4.47;2.17;;;;;;;22.52;56.69;98994.00;4477314;32;33211;-79
2022/08/27 04:04:15;;;;;;;4.60;1.98;;;;;;;22.41;57.05;98996.56;4476847;32;34391;-77
2022/08/27 04:06:44;;;;;;;6.35;1.87;;;;;;;22.49;56.92;99003.94;4479114;32;33844;-78
2022/08/27 04:09:14;;;;;;;3.78;2.00;;;;;;;22.48;57.32;99005.75;4482919;32;33800;-78
2022/08/27 04:11:44;;;;;;;3.58;2.33;;;;;;;22.43;57.38;99002.59;4477225;32;33132;-80
2022/08/27 04:14:13;;;;;;;5.68;1.77;;;;;;;22.33;57.73;98996.31;4477451;32;33467;-80
2022/08/27 04:16:56;;;;;;;3.20;1.95;;;;;;;22.35;57.95;98995.22;4477021;32;34815;-78
2022/08/27 04:19:26;;;;;;;6.87;2.75;;;;;;;22.46;57.77;98993.59;4482916;32;33804;-79
2022/08/27 04:22:00;;;;;;;2.83;1.58;;;;;;;22.45;57.71;98994.56;4477181;32;33040;-78
2022/08/27 04:24:32;;;;;;;6.43;1.80;;;;;;;22.47;57.84;98988.22;4463952;32;33410;-80
2022/08/27 04:27:02;;;;;;;3.85;2.08;;;;;;;22.42;58.11;98992.12;4461600;32;33694;-79
2022/08/27 04:29:30;;;;;;;2.95;1.73;;;;;;;22.45;58.37;99002.50;4461421;32;34650;-79
2022/08/27 04:32:00;;;;;;;8.02;2.28;;;;;;;22.51;58.42;99004.66;4466881;32;33113;-79
2022/08/27 04:34:29;;;;;;;3.75;1.85;;;;;;;22.55;58.32;99003.50;4465429;32;34608;-78
2022/08/27 04:36:58;;;;;;;3.62;1.92;;;;;;;22.57;58.42;98996.31;4476725;32;34844;-80
2022/08/27 04:39:28;;;;;;;5.55;2.25;;;;;;;22.59;58.49;99004.94;4477093;32;34016;-79
2022/08/27 04:42:00;;;;;;;4.57;1.77;;;;;;;22.69;58.34;99005.09;4482462;32;35498;-78
2022/08/27 04:44:32;;;;;;;5.25;2.45;;;;;;;22.74;58.17;99001.19;4477633;32;32995;-78
2022/08/27 04:47:03;;;;;;;5.00;1.85;;;;;;;22.66;58.41;98998.25;4476942;32;33603;-78
2022/08/27 04:49:32;;;;;;;7.43;2.40;;;;;;;22.82;58.32;99005.06;4477341;32;33814;-78
2022/08/27 04:52:02;;;;;;;4.07;1.73;;;;;;;22.75;58.70;98996.72;4479047;32;34189;-78
2022/08/27 04:54:32;;;;;;;6.43;2.08;;;;;;;22.80;58.62;98990.13;4482549;32;33479;-79
2022/08/27 04:57:06;;;;;;;3.75;1.70;;;;;;;22.78;58.68;98999.12;4476542;32;33994;-79
2022/08/27 04:59:36;;;;;;;3.08;1.87;;;;;;;22.93;58.38;98987.44;4476802;32;33448;-78
2022/08/27 05:02:09;;;;;;;4.57;2.08;;;;;;;23.07;58.57;99001.44;4476592;32;34206;-78
2022/08/27 05:04:39;;;;;;;4.70;1.90;;;;;;;22.95;58.98;98993.44;4478089;32;33843;-79
2022/08/27 05:07:09;;;;;;;3.90;2.00;;;;;;;23.17;58.21;98999.75;4481948;32;33999;-79
2022/08/27 05:09:38;;;;;;;4.35;2.17;;;;;;;23.19;58.81;98998.69;4477119;32;33954;-79
2022/08/27 05:12:09;;;;;;;2.45;1.30;;;;;;;23.17;59.25;98999.75;4476634;32;34228;-78
2022/08/27 05:14:37;;;;;;;3.15;1.73;;;;;;;23.32;58.60;99003.91;4476986;32;34319;-79
2022/08/27 05:17:06;;;;;;;3.45;1.80;;;;;;;23.34;58.13;99001.97;4482267;32;33770;-80
2022/08/27 05:19:35;;;;;;;2.17;1.48;;;;;;;23.48;58.02;99008.00;4476953;32;34601;-78
2022/08/27 05:22:04;;;;;;;5.18;1.65;;;;;;;23.68;57.57;98999.34;4476847;32;34093;-78
2022/08/27 05:24:33;;;;;;;7.53;1.67;;;;;;;23.74;57.13;99001.53;4476917;32;33672;-78
2022/08/27 05:27:02;;;;;;;4.78;2.05;;;;;;;23.70;57.60;98997.41;4482270;32;33991;-78
2022/08/27 05:29:32;;;;;;;3.80;2.30;;;;;;;23.88;57.24;99004.91;4480971;32;34874;-79
2022/08/27 05:32:01;;;;;;;3.17;1.60;;;;;;;24.10;57.51;99007.53;4476634;32;33405;-80
2022/08/27 05:34:30;;;;;;;3.53;1.30;;;;;;;24.25;56.63;99008.09;4476225;32;33706;-79
2022/08/27 05:36:59;;;;;;;3.85;1.90;;;;;;;24.38;55.74;98997.34;4476451;32;34849;-80
2022/08/27 05:39:28;;;;;;;4.03;1.55;;;;;;;24.80;54.51;99008.09;4482225;32;33650;-79
2022/08/27 05:41:57;;;;;;;5.78;2.05;;;;;;;25.34;51.45;99005.25;4476344;32;33805;-79
2022/08/27 05:44:29;;;;;;;4.20;1.30;;;;;;;25.80;49.01;99008.41;4476508;32;33791;-78
2022/08/27 05:47:10;;;;;;;2.83;1.42;;;;;;;26.21;48.33;99008.44;4476578;32;34503;-78
2022/08/27 05:49:39;;;;;;;3.67;1.40;;;;;;;26.35;47.20;99008.91;4476408;32;33264;-78
2022/08/27 05:52:11;;;;;;;5.47;1.85;;;;;;;26.22;47.85;99004.84;4482044;32;33091;-78
2022/08/27 05:54:40;;;;;;;7.78;1.70;;;;;;;25.89;49.42;99007.66;4476561;32;33482;-80
2022/08/27 05:57:09;;;;;;;4.20;1.98;;;;;;;25.82;49.53;99003.81;4475384;32;34789;-80
2022/08/27 06:02:27;;;;;;;4.30;1.70;;;;;;;25.55;52.28;99007.91;4481968;32;33697;-79
2022/08/27 06:04:56;;;;;;;3.95;2.00;;;;;;;25.22;50.18;99002.81;4481096;32;33813;-79
2022/08/27 06:07:25;;;;;;;3.53;1.52;;;;;;;25.46;49.95;99003.37;4476204;32;33770;-79
2022/08/27 06:09:53;;;;;;;3.80;1.83;;;;;;;25.72;49.32;99005.59;4476077;32;33004;-78
2022/08/27 06:12:23;;;;;;;4.75;1.55;;;;;;;25.67;49.87;99006.00;4475841;32;33115;-79
2022/08/27 06:14:56;;;;;;;5.90;2.10;;;;;;;25.79;49.79;99006.75;4481625;32;33489;-79
2022/08/27 06:17:26;;;;;;;5.28;2.12;;;;;;;25.81;48.39;99004.81;4475440;32;33707;-80
2022/08/27 06:19:55;;;;;;;5.28;2.08;;;;;;;25.53;50.05;99012.50;4475907;32;33714;-80
2022/08/27 06:22:25;;;;;;;3.97;1.60;;;;;;;25.74;48.88;99015.13;4476028;32;33545;-78
2022/08/27 06:24:53;;;;;;;4.32;1.65;;;;;;;25.51;49.98;99009.13;4481666;32;33548;-79
2022/08/27 06:27:22;;;;;;;4.07;1.70;;;;;;;25.96;47.72;99010.63;4475902;32;33669;-80
2022/08/27 06:29:51;;;;;;;3.28;1.67;;;;;;;25.80;48.53;99019.06;4475913;32;33561;-78
2022/08/27 06:32:20;;;;;;;4.65;2.45;;;;;;;25.86;47.83;99020.38;4482611;31;33753;-78
2022/08/27 06:34:50;;;;;;;3.17;1.67;;;;;;;25.90;47.62;99021.78;4476610;32;34150;-79
2022/08/27 06:37:19;;;;;;;5.60;2.80;;;;;;;26.04;46.98;99032.03;4481644;32;33251;-79
2022/08/27 06:39:49;;;;;;;4.15;1.98;;;;;;;26.24;46.37;99032.97;4476036;31;33422;-78
2022/08/27 06:42:18;;;;;;;2.92;1.45;;;;;;;26.24;47.00;99037.41;4482650;31;35729;-79
2022/08/27 06:44:49;;;;;;;3.87;2.12;;;;;;;26.42;45.40;99035.78;4483567;31;33611;-78
2022/08/27 06:47:18;;;;;;;7.85;1.80;;;;;;;26.19;46.14;99037.81;4486778;31;33834;-79
2022/08/27 06:49:50;;;;;;;9.10;1.97;;;;;;;26.39;45.59;99038.72;4483652;31;34914;-79
2022/08/27 06:52:19;;;;;;;5.22;1.83;;;;;;;26.40;45.88;99043.06;4482652;31;32140;-80
2022/08/27 06:54:49;;;;;;;3.58;1.55;;;;;;;26.42;44.68;99046.44;4482135;31;33550;-79
2022/08/27 06:57:17;;;;;;;6.70;3.00;;;;;;;26.88;43.78;99041.47;4481159;31;35164;-79
2022/08/27 06:59:47;;;;;;;4.62;1.80;;;;;;;26.86;44.28;99038.94;4487430;31;34047;-81
2022/08/27 07:02:15;;;;;;;4.47;2.12;;;;;;;27.15;43.14;99041.56;4474291;31;33816;-78
2022/08/27 07:04:44;;;;;;;2.90;1.60;;;;;;;27.08;43.18;99044.94;4474358;31;33864;-79
2022/08/27 07:07:14;;;;;;;6.10;1.90;;;;;;;27.09;42.50;99042.16;4473334;31;33344;-78
2022/08/27 07:10:04;;;;;;;2.23;1.40;;;;;;;27.02;42.22;99044.53;4470646;31;34118;-79
2022/08/27 07:12:33;;;;;;;3.85;2.25;;;;;;;27.19;42.41;99051.00;4483432;32;33763;-80
2022/08/27 07:15:02;;;;;;;7.22;1.80;;;;;;;27.22;43.74;99048.03;4478100;32;32967;-78
2022/08/27 07:17:32;;;;;;;4.80;1.37;;;;;;;27.21;42.25;99054.38;4477305;32;33566;-81
2022/08/27 07:20:02;;;;;;;2.12;1.20;;;;;;;27.23;42.84;99056.87;4484091;31;34632;-81
2022/08/27 07:22:32;;;;;;;4.45;1.85;;;;;;;27.34;42.73;99066.53;4496301;31;33127;-79
2022/08/27 07:25:02;;;;;;;4.05;2.17;;;;;;;27.20;42.94;99068.66;4493482;31;34195;-79
2022/08/27 07:27:31;;;;;;;3.22;1.55;;;;;;;27.43;41.31;99063.87;4493509;31;34587;-80
2022/08/27 07:30:00;;;;;;;3.20;1.98;;;;;;;27.46;39.92;99054.75;4482564;31;33748;-80
2022/08/27 07:32:29;;;;;;;6.10;1.65;;;;;;;27.45;39.29;99061.91;4484396;31;33168;-80
2022/08/27 07:34:59;;;;;;;4.17;1.73;;;;;;;27.52;39.51;99067.50;4482669;32;33682;-80
2022/08/27 07:37:28;;;;;;;2.83;1.23;;;;;;;27.60;38.49;99059.62;4483429;31;34838;-81
2022/08/27 07:40:06;;;;;;;4.15;2.42;;;;;;;27.37;39.04;99071.56;4485011;31;34424;-80
2022/08/27 07:45:21;;;;;;;3.85;1.70;;;;;;;27.79;37.81;99065.88;4495986;31;34144;-79
2022/08/27 07:47:50;;;;;;;5.43;2.78;;;;;;;27.69;38.14;99067.72;4482862;32;33608;-81
2022/08/27 07:50:20;;;;;;;3.25;1.52;;;;;;;27.87;37.97;99066.03;4477061;31;33651;-80
2022/08/27 07:52:49;;;;;;;5.68;1.98;;;;;;;28.04;37.38;99070.56;4477323;32;34130;-78
2022/08/27 07:55:19;;;;;;;3.92;1.20;;;;;;;28.00;38.34;99069.19;4477319;32;33582;-79
2022/08/27 07:57:48;;;;;;;3.83;1.70;;;;;;;27.95;37.80;99067.94;4490409;31;33229;-81
2022/08/27 08:00:20;;;;;;;3.15;1.50;;;;;;;27.98;37.25;99065.84;4477519;31;33820;-79
2022/08/27 08:02:49;;;;;;;4.20;1.85;;;;;;;28.15;37.30;99066.88;4476669;31;32546;-78
2022/08/27 08:05:18;;;;;;;6.03;1.80;;;;;;;28.43;36.87;99066.88;4473979;31;34207;-80
2022/08/27 08:07:47;;;;;;;2.97;1.27;;;;;;;28.26;37.38;99063.16;4480435;31;33661;-80
2022/08/27 08:10:16;;;;;;;2.62;1.33;;;;;;;28.46;36.66;99061.25;4474123;31;33663;-79
2022/08/27 08:12:46;;;;;;;4.75;2.00;;;;;;;28.47;36.57;99061.13;4474866;31;32999;-80
2022/08/27 08:15:16;;;;;;;3.90;1.85;;;;;;;28.59;35.68;99067.09;4475337;31;34050;-79
2022/08/27 08:17:46;;;;;;;3.15;1.62;;;;;;;28.54;35.71;99064.03;4476789;31;34389;-80
2022/08/27 08:20:15;;;;;;;4.43;1.83;;;;;;;28.45;36.28;99072.91;4481285;31;33580;-79
2022/08/27 08:23:03;;;;;;;3.60;1.60;;;;;;;28.66;34.91;99075.34;4475584;31;32950;-80
2022/08/27 08:25:37;;;;;;;3.12;1.40;;;;;;;28.88;35.34;99079.37;4476040;31;34504;-79
2022/08/27 08:28:08;;;;;;;4.47;1.67;;;;;;;28.88;35.71;99076.72;4476380;31;36661;-80
2022/08/27 08:30:37;;;;;;;2.80;1.25;;;;;;;29.12;35.24;99076.97;4475690;31;33123;-79
2022/08/27 08:33:07;;;;;;;3.55;1.50;;;;;;;29.03;35.09;99075.19;4481618;31;34099;-79
2022/08/27 08:35:38;;;;;;;3.83;1.60;;;;;;;29.20;35.24;99072.69;4475887;31;33791;-79
2022/08/27 08:38:09;;;;;;;3.15;1.50;;;;;;;29.32;34.84;99079.44;4476638;31;34607;-79
2022/08/27 08:40:40;;;;;;;4.78;1.87;;;;;;;29.35;34.56;99074.62;4476450;31;34509;-79
2022/08/27 08:43:24;;;;;;;4.07;2.00;;;;;;;29.28;35.16;99076.25;4482043;31;33284;-78
2022/08/27 08:45:54;;;;;;;3.47;1.73;;;;;;;29.43;34.76;99079.22;4483835;31;35070;-79
2022/08/27 08:48:24;;;;;;;3.75;1.83;;;;;;;29.62;34.13;99075.47;4484530;31;33862;-79
2022/08/27 08:50:57;;;;;;;4.22;1.33;;;;;;;29.67;34.24;99072.38;4483229;31;34020;-80
2022/08/27 08:53:36;;;;;;;4.53;2.50;;;;;;;29.59;33.75;99080.31;4484180;31;34023;-80
2022/08/27 08:56:11;;;;;;;3.45;1.75;;;;;;;29.72;33.04;99076.25;4486933;31;33524;-80
2022/08/27 08:58:46;;;;;;;3.45;1.52;;;;;;;29.71;33.33;99076.41;4486374;31;33614;-80
2022/08/27 09:01:19;;;;;;;3.28;1.45;;;;;;;30.15;32.54;99068.28;4480208;31;34271;-80
2022/08/27 09:03:52;;;;;;;3.47;1.83;;;;;;;30.11;31.88;99078.47;4483969;31;33483;-79
2022/08/27 09:06:32;;;;;;;5.95;1.83;;;;;;;30.27;31.43;99075.03;4482680;31;34474;-81
2022/08/27 09:09:07;;;;;;;4.25;1.40;;;;;;;30.36;31.64;99078.59;4476617;31;34451;-79
2022/08/27 09:11:41;;;;;;;7.05;1.48;;;;;;;30.55;31.05;99077.47;4482308;31;34420;-80
2022/08/27 09:14:23;;;;;;;2.75;1.20;;;;;;;30.27;30.84;99072.34;4477101;32;33362;-81
2022/08/27 09:16:52;;;;;;;3.00;1.27;;;;;;;30.65;29.59;99071.97;4476699;31;33587;-79
2022/08/27 09:19:26;;;;;;;3.20;1.23;;;;;;;30.80;29.18;99071.16;4475592;32;34389;-81
2022/08/27 09:22:01;;;;;;;3.35;1.35;;;;;;;31.12;28.32;99064.19;4476639;32;34365;-79
2022/08/27 09:24:37;;;;;;;3.85;1.08;;;;;;;30.83;30.90;99064.66;4489491;31;33117;-79
2022/08/27 09:27:06;;;;;;;5.35;2.00;;;;;;;31.06;30.22;99056.00;4481127;31;34243;-80
2022/08/27 09:29:37;;;;;;;6.62;1.90;;;;;;;31.49;29.74;99062.03;4484711;31;33782;-81
2022/08/27 09:32:07;;;;;;;;;;;;;;;31.43;28.63;99056.31;4480451;31;33472;-79
2022/08/27 09:34:37;;;;;;;4.30;1.50;;;;;;;31.53;28.50;99061.50;4484343;31;34303;-79
2022/08/27 09:37:08;;;;;;;2.78;1.65;;;;;;;31.57;28.83;99056.63;4479727;32;33386;-80
2022/08/27 09:39:46;;;;;;;4.85;1.27;;;;;;;31.67;29.02;99050.06;4488530;31;34975;-81
2022/08/27 09:42:34;;;;;;;1.70;1.10;;;;;;;31.66;29.99;99050.25;4491971;31;34040;-80
2022/08/27 09:45:09;;;;;;;2.97;1.27;;;;;;;32.05;28.40;99050.31;4492573;31;33319;-80
2022/08/27 09:47:45;;;;;;;2.70;1.27;;;;;;;31.92;27.97;99059.88;4492232;31;33567;-81
2022/08/27 09:50:17;;;;;;;3.75;1.77;;;;;;;32.09;27.47;99046.28;4497898;31;33759;-79
2022/08/27 09:52:53;;;;;;;2.83;0.90;;;;;;;32.13;27.29;99053.97;4492087;31;33138;-79
2022/08/27 09:55:30;;;;;;;4.80;1.55;;;;;;;31.95;25.80;99052.38;4476397;32;34183;-80
2022/08/27 09:58:00;;;;;;;4.97;1.08;;;;;;;31.92;25.18;99049.16;4476149;32;34510;-80
2022/08/27 10:00:36;;;;;;;3.33;1.33;;;;;;;31.80;25.88;99041.50;4475689;32;33709;-81
2022/08/27 10:03:06;;;;;;;1.87;0.88;;;;;;;32.33;24.81;99039.13;4479973;32;34617;-79
2022/08/27 10:05:37;;;;;;;2.37;1.13;;;;;;;32.33;26.12;99043.63;4474531;32;33382;-79
2022/08/27 10:08:13;;;;;;;2.35;1.00;;;;;;;32.50;24.74;99042.59;4474256;32;34708;-78
2022/08/27 10:10:47;;;;;;;1.83;0.62;;;;;;;32.48;23.89;99047.25;4474265;32;33784;-79
2022/08/27 10:13:20;;;;;;;2.15;1.00;;;;;;;32.46;24.24;99043.91;4477297;32;34403;-79
2022/08/27 10:16:02;;;;;;;2.95;0.80;;;;;;;32.28;25.08;99038.78;4478412;32;32979;-79
2022/08/27 10:18:40;;;;;;;3.42;0.98;;;;;;;32.21;24.30;99044.06;4475921;32;33908;-79
2022/08/27 10:21:17;;;;;;;2.62;1.35;;;;;;;32.46;24.49;99046.59;4475783;32;34400;-80
2022/08/27 10:23:55;;;;;;;1.70;0.85;;;;;;;32.68;25.18;99040.44;4476012;32;34054;-79
2022/08/27 10:26:28;;;;;;;3.40;1.37;;;;;;;32.69;24.56;99052.88;4475953;32;34325;-77
2022/08/27 10:29:09;;;;;;;2.85;1.20;;;;;;;32.92;24.46;99052.03;4481232;32;34648;-78
2022/08/27 10:31:50;;;;;;;3.20;1.92;;;;;;;32.67;24.46;99046.00;4475692;32;34048;-79
2022/08/27 10:34:30;;;;;;;3.33;1.42;;;;;;;32.83;23.82;99045.03;4475618;32;34857;-79
2022/08/27 10:37:03;;;;;;;;;;;;;;;32.85;24.29;99045.69;4476510;32;33218;-80
2022/08/27 10:39:50;;;;;;;6.10;1.12;;;;;;;32.67;24.84;99049.53;4475688;32;34724;-79
2022/08/27 10:42:25;;;;;;;3.03;0.98;;;;;;;32.71;24.16;99045.44;4477231;32;33846;-78
2022/08/27 10:45:03;;;;;;;3.15;1.02;;;;;;;32.65;22.75;99046.19;4483103;32;33531;-78
2022/08/27 10:47:52;;;;;;;3.22;1.08;;;;;;;33.07;23.70;99039.50;4478136;32;33879;-79
2022/08/27 10:50:27;;;;;;;1.90;1.35;;;;;;;33.04;21.63;99037.19;4478409;32;34245;-80
2022/08/27 10:52:59;;;;;;;2.65;1.45;;;;;;;32.77;21.74;99041.22;4477987;32;33867;-78
2022/08/27 10:55:32;;;;;;;4.60;2.35;;;;;;;32.97;22.70;99038.88;4478462;32;33561;-80
2022/08/27 10:58:22;;;;;;;1.83;1.17;;;;;;;32.98;23.58;99037.03;4483051;32;32864;-80
2022/08/27 11:00:54;;;;;;;;;;;;;;;32.70;23.53;99033.03;4483413;32;34607;-78
2022/08/27 11:03:27;;;;;;;3.62;1.23;;;;;;;33.36;22.53;99035.22;4477440;32;35895;-78
2022/08/27 11:06:04;;;;;;;1.50;0.68;;;;;;;33.16;23.22;99032.22;4478104;32;33023;-79
2022/08/27 11:08:38;;;;;;;3.00;1.05;;;;;;;33.42;23.39;99033.63;4477885;32;33343;-79
2022/08/27 11:11:14;;;;;;;5.03;1.67;;;;;;;33.38;22.85;99038.56;4482224;32;33424;-79
2022/08/27 11:14:06;;;;;;;1.98;1.00;;;;;;;33.51;23.24;99036.06;4479939;32;33578;-79
2022/08/27 11:16:40;;;;;;;1.87;0.90;;;;;;;33.66;23.02;99029.88;4477134;32;33504;-79
2022/08/27 11:19:19;;;;;;;2.40;1.17;;;;;;;33.03;23.02;99027.47;4478064;32;32485;-78
2022/08/27 11:21:59;;;;;;;1.60;1.00;;;;;;;33.39;23.65;99026.75;4477503;32;33624;-80
2022/08/27 11:24:33;;;;;;;2.75;0.98;;;;;;;33.52;22.88;99020.78;4477547;32;34964;-80
2022/08/27 11:27:05;;;;;;;3.65;1.23;;;;;;;33.72;23.11;99019.22;4483171;32;33700;-79
2022/08/27 11:29:36;;;;;;;1.90;1.42;;;;;;;34.02;23.05;99026.44;4477602;32;33666;-79
2022/08/27 11:32:12;;;;;;;2.30;1.02;;;;;;;33.97;22.84;99024.31;4476572;32;33710;-79
2022/08/27 11:34:44;;;;;;;3.33;1.10;;;;;;;33.97;23.90;99017.09;4463950;32;34313;-78
2022/08/27 11:37:24;;;;;;;2.05;0.95;;;;;;;33.86;23.59;99014.88;4476714;32;34418;-80
2022/08/27 11:40:08;;;;;;;2.75;1.35;;;;;;;33.82;23.94;99021.62;4483259;32;33053;-79
2022/08/27 11:42:41;;;;;;;3.25;1.15;;;;;;;34.06;22.58;99011.59;4482658;32;33369;-79
2022/08/27 11:45:17;;;;;;;2.83;1.17;;;;;;;34.37;23.73;99014.06;4477590;32;34625;-79
2022/08/27 11:47:53;;;;;;;1.85;0.80;;;;;;;34.29;22.78;99009.63;4477442;32;33467;-79
2022/08/27 11:50:25;;;;;;;3.05;0.90;;;;;;;34.13;23.73;99007.97;4477705;32;33153;-80
2022/08/27 11:52:59;;;;;;;2.25;1.02;;;;;;;34.29;23.30;99008.75;4481714;32;34362;-80
2022/08/27 11:55:35;;;;;;;2.95;0.90;;;;;;;34.05;23.73;98996.47;4481579;32;33495;-79
2022/08/27 11:58:10;;;;;;;4.05;1.42;;;;;;;34.52;23.54;98998.66;4477228;32;33460;-78
2022/08/27 12:00:41;;;;;;;2.35;1.05;;;;;;;34.25;23.45;98989.47;4477249;32;34126;-79